メインページ
METAR-TAF:

METAR-TAF

空港 :

ロサンゼルス, カリフォルニア州, アメリカ合衆国

ロサンゼルス国際空港

緯度: 33-56-17N, 経度: 118-23-20W, 海抜: 38m

現時点の気象観測

当レポートは41分前の15:53(UTC)に作成
無風
気温 23°C
湿度 27%
気圧 1018 hPa
視程: 16.1km
晴天

METAR: KLAX 221553Z 00000KT 10SM CLR 23/03 A3006 RMK AO2 SLP178 T02330028

時間: 08:34 (16:34 UTC)

予報

当レポートは1時間22分前の15:12(UTC)に作成
予報は22日の 15時(UTC)から 23日の 18時(UTC)まで有効
北東の風 5kt
視程: 10km
晴天
22日の 2000時(UTC)から
西の風 10kt
視程: 10km
晴天
23日の 0300時(UTC)から
変向風 3kt
視程: 10km
晴天
23日の 1400時(UTC)から
北東の風 5kt
視程: 10km
晴天

TAF: KLAX 221512Z 2215/2318 05005KT P6SM SKC FM222000 27010KT P6SM SKC FM230300 VRB03KT P6SM SKC FM231400 05005KT P6SM SKC

4,000以上の空港の気象観測と天気予報(METAR報とTAF報)

利用可能な観測所は地図上に黄色い丸と赤い丸で示す。

丸の上にカーソルを重ねると観測所名を参照できる。

次にクリックすると気象観測と天気予報を参照できる。

マップの切り替え:黒色「×」印の緑ボタンをクリックして拡大、「-」印の緑ボタンをクリックして縮小、緑色の三角印をクリックして隣りの地図に切り替え


METAR-TAF: